createdAt,value
2022-10-14T00:00:25.292Z,24.00
2022-10-14T00:02:59.006Z,24.65
2022-10-14T00:05:26.515Z,26.90
2022-10-14T00:10:27.407Z,23.30
2022-10-14T00:12:54.758Z,26.98
2022-10-14T00:15:28.023Z,25.58
2022-10-14T00:17:55.266Z,27.83
2022-10-14T00:20:29.078Z,27.00
2022-10-14T00:22:56.246Z,24.23
2022-10-14T00:25:23.426Z,26.08
2022-10-14T00:27:57.064Z,28.52
2022-10-14T00:30:24.310Z,26.17
2022-10-14T00:32:58.083Z,27.17
2022-10-14T00:35:25.404Z,27.10
2022-10-14T00:37:52.640Z,27.85
2022-10-14T00:40:26.289Z,28.88
2022-10-14T00:42:53.581Z,27.70
2022-10-14T00:45:36.116Z,26.15
2022-10-14T00:48:03.439Z,25.95
2022-10-14T00:50:30.589Z,28.60
2022-10-14T00:53:06.142Z,30.30
2022-10-14T00:55:33.318Z,27.27
2022-10-14T00:58:07.124Z,29.33
2022-10-14T01:00:34.509Z,28.92
2022-10-14T01:03:01.703Z,30.25
2022-10-14T01:05:39.062Z,30.98
2022-10-14T01:08:06.356Z,32.27
2022-10-14T01:10:55.064Z,29.95
2022-10-14T01:13:45.507Z,32.10
2022-10-14T01:16:28.103Z,31.67
2022-10-14T01:19:14.095Z,33.75
2022-10-14T01:21:52.130Z,32.80
2022-10-14T01:24:19.349Z,32.85
2022-10-14T01:26:54.035Z,34.22
2022-10-14T01:29:40.110Z,34.40
2022-10-14T01:32:18.121Z,33.78
2022-10-14T01:34:49.939Z,33.60
2022-10-14T01:37:26.078Z,32.47
2022-10-14T01:39:56.077Z,31.95
2022-10-14T01:42:34.058Z,34.45
2022-10-14T01:45:20.072Z,34.97
2022-10-14T01:47:56.029Z,35.50
2022-10-14T01:50:24.759Z,32.55
2022-10-14T01:53:10.205Z,43.88
2022-10-14T01:55:39.203Z,38.70
2022-10-14T01:58:07.263Z,43.22
2022-10-14T02:00:41.117Z,42.97
2022-10-14T02:03:08.383Z,41.83
2022-10-14T02:05:49.084Z,47.08
2022-10-14T02:08:31.633Z,45.80
2022-10-14T02:11:13.217Z,46.75
2022-10-14T02:13:47.763Z,42.20
2022-10-14T02:16:27.165Z,49.35
2022-10-14T02:19:00.177Z,48.70
2022-10-14T02:21:37.077Z,49.85
2022-10-14T02:24:10.275Z,51.40
2022-10-14T02:26:45.141Z,51.58
2022-10-14T02:29:12.755Z,49.95
2022-10-14T02:34:15.695Z,38.03
2022-10-14T02:36:43.498Z,52.50
2022-10-14T02:39:19.308Z,45.97
2022-10-14T02:41:46.860Z,49.90
2022-10-14T02:44:27.176Z,52.15
2022-10-14T02:47:00.981Z,51.33
2022-10-14T02:49:35.124Z,49.47
2022-10-14T02:52:02.292Z,48.60
2022-10-14T02:54:29.494Z,49.30
2022-10-14T02:57:03.129Z,53.95
2022-10-14T02:59:30.358Z,49.35
2022-10-14T03:01:57.464Z,51.95
2022-10-14T03:04:31.112Z,51.80
2022-10-14T03:06:58.714Z,50.97
2022-10-14T03:11:59.312Z,49.00
2022-10-14T03:14:26.408Z,49.08
2022-10-14T03:17:00.097Z,51.65
2022-10-14T03:19:27.364Z,51.67
2022-10-14T03:22:01.212Z,53.58
2022-10-14T03:24:28.521Z,52.20
2022-10-14T03:26:55.639Z,46.90
2022-10-14T03:29:29.212Z,44.10
2022-10-14T03:31:56.390Z,49.95
2022-10-14T03:34:23.497Z,52.20
2022-10-14T03:36:57.172Z,50.92
2022-10-14T03:39:24.358Z,48.58
2022-10-14T03:41:58.470Z,53.60
2022-10-14T03:44:32.220Z,45.25
2022-10-14T03:47:12.126Z,52.30
2022-10-14T03:49:39.409Z,43.53
2022-10-14T03:52:06.588Z,47.10
2022-10-14T03:54:40.260Z,46.70
2022-10-14T03:57:07.516Z,51.20
2022-10-14T03:59:34.642Z,51.85
2022-10-14T04:02:08.140Z,46.75
2022-10-14T04:04:35.404Z,49.65
2022-10-14T04:07:09.299Z,49.28
2022-10-14T04:09:36.513Z,46.45
2022-10-14T04:12:03.604Z,38.22
2022-10-14T04:14:37.117Z,45.35
2022-10-14T04:17:04.270Z,43.33
2022-10-14T04:19:38.397Z,39.30
2022-10-14T04:22:05.599Z,38.45
2022-10-14T04:24:32.708Z,38.42
2022-10-14T04:27:06.238Z,41.78
2022-10-14T04:29:33.488Z,42.50
2022-10-14T04:32:00.607Z,42.83
2022-10-14T04:34:34.123Z,42.47
2022-10-14T04:37:01.327Z,42.95
2022-10-14T04:39:35.057Z,43.80
2022-10-14T04:42:02.512Z,40.28
2022-10-14T04:44:43.043Z,42.42
2022-10-14T04:47:17.255Z,34.95
2022-10-14T04:49:51.095Z,43.30
2022-10-14T04:52:18.640Z,46.92
2022-10-14T04:54:45.904Z,45.72
2022-10-14T04:57:19.060Z,43.38
2022-10-14T04:59:46.318Z,47.08
2022-10-14T05:02:13.454Z,44.25
2022-10-14T05:04:47.048Z,44.83
2022-10-14T05:07:14.327Z,47.30
2022-10-14T05:09:51.166Z,47.50
2022-10-14T05:12:19.871Z,48.15
2022-10-14T05:14:47.228Z,49.22
2022-10-14T05:17:21.102Z,44.38
2022-10-14T05:19:48.279Z,50.55
2022-10-14T05:22:22.325Z,47.42
2022-10-14T05:24:49.774Z,44.72
2022-10-14T05:27:16.876Z,47.53
2022-10-14T05:29:50.191Z,47.53
2022-10-14T05:32:17.577Z,47.75
2022-10-14T05:34:44.760Z,52.13
2022-10-14T05:37:18.153Z,47.45
2022-10-14T05:39:45.341Z,43.53
2022-10-14T05:42:19.608Z,42.45
2022-10-14T05:44:53.170Z,37.20
2022-10-14T05:47:27.316Z,32.17
2022-10-14T05:49:54.398Z,30.58
2022-10-14T05:52:21.825Z,26.02
2022-10-14T05:57:22.419Z,16.48
2022-10-14T05:59:56.112Z,17.27
2022-10-14T06:02:24.000Z,11.10
2022-10-14T06:04:51.533Z,12.77
2022-10-14T06:07:25.143Z,11.43
2022-10-14T06:09:52.391Z,9.57
2022-10-14T06:12:26.187Z,9.77
2022-10-14T06:14:53.401Z,9.18
2022-10-14T06:17:20.553Z,10.10
2022-10-14T06:19:54.216Z,8.98
2022-10-14T06:22:21.495Z,8.27
2022-10-14T06:24:55.842Z,7.90
2022-10-14T06:27:24.653Z,8.52
2022-10-14T06:30:04.349Z,7.38
2022-10-14T06:32:31.585Z,5.28
2022-10-14T06:34:58.702Z,6.18
2022-10-14T06:37:32.177Z,5.30
2022-10-14T06:39:59.476Z,5.00
2022-10-14T06:42:34.204Z,5.32
2022-10-14T06:45:08.144Z,5.18
2022-10-14T06:47:48.182Z,5.28
2022-10-14T06:50:15.396Z,5.03
2022-10-14T06:52:56.173Z,5.03
2022-10-14T06:55:30.111Z,5.03
2022-10-14T06:57:57.427Z,6.05
2022-10-14T07:00:25.111Z,5.07
2022-10-14T07:05:26.818Z,4.70
2022-10-14T07:10:28.371Z,4.72
2022-10-14T07:12:56.310Z,5.47
2022-10-14T07:15:35.256Z,4.03
2022-10-14T07:18:04.474Z,4.40
2022-10-14T07:20:38.374Z,3.50
2022-10-14T07:23:05.593Z,3.90
2022-10-14T07:25:33.058Z,3.58
2022-10-14T07:28:07.203Z,3.88
2022-10-14T07:30:34.511Z,3.60
2022-10-14T07:33:08.122Z,3.75
2022-10-14T07:35:35.596Z,3.88
2022-10-14T07:38:02.692Z,3.92
2022-10-14T07:40:44.464Z,3.50
2022-10-14T07:43:11.843Z,3.08
2022-10-14T07:45:54.398Z,3.85
2022-10-14T07:48:32.692Z,3.15
2022-10-14T07:51:13.240Z,3.40
2022-10-14T07:53:50.119Z,3.95
2022-10-14T07:56:17.401Z,3.88
2022-10-14T07:58:51.128Z,4.13
2022-10-14T08:01:19.124Z,3.72
2022-10-14T08:03:47.503Z,3.22
2022-10-14T08:06:21.225Z,3.28
2022-10-14T08:08:48.588Z,2.95
2022-10-14T08:11:17.020Z,3.17
2022-10-14T08:13:51.389Z,4.32
2022-10-14T08:16:18.572Z,3.03
2022-10-14T08:18:46.133Z,2.78
2022-10-14T08:23:47.734Z,2.70
2022-10-14T08:26:30.280Z,3.13
2022-10-14T08:28:57.850Z,3.13
2022-10-14T08:33:58.315Z,3.33
2022-10-14T08:36:25.639Z,3.30
2022-10-14T08:39:00.231Z,2.95
2022-10-14T08:41:39.345Z,2.60
2022-10-14T08:44:33.219Z,2.58
2022-10-14T08:47:12.829Z,2.80
2022-10-14T08:50:05.302Z,3.35
2022-10-14T08:52:40.241Z,2.88
2022-10-14T08:55:33.290Z,2.78
2022-10-14T08:58:10.553Z,2.85
2022-10-14T09:03:17.578Z,2.60
2022-10-14T09:05:52.193Z,2.88
2022-10-14T09:08:21.186Z,2.80
2022-10-14T09:10:55.221Z,3.08
2022-10-14T09:13:29.692Z,2.97
2022-10-14T09:16:10.192Z,2.63
2022-10-14T09:18:53.891Z,2.88
2022-10-14T09:21:51.642Z,2.95
2022-10-14T09:24:22.552Z,2.72
2022-10-14T09:27:19.387Z,2.13
2022-10-14T09:29:46.773Z,3.05
2022-10-14T09:32:23.720Z,2.67
2022-10-14T09:34:52.878Z,2.58
2022-10-14T09:37:33.256Z,3.28
2022-10-14T09:40:09.534Z,2.58
2022-10-14T09:43:02.237Z,2.97
2022-10-14T09:46:01.207Z,2.63
2022-10-14T09:48:41.237Z,3.15
2022-10-14T09:51:10.128Z,3.08
2022-10-14T09:53:44.436Z,2.63
2022-10-14T09:56:12.035Z,2.60
2022-10-14T10:01:22.231Z,2.97
2022-10-14T10:03:50.211Z,3.08
2022-10-14T10:06:26.214Z,2.50
2022-10-14T10:08:53.426Z,2.00
2022-10-14T10:11:46.323Z,2.58
2022-10-14T10:14:30.054Z,2.75
2022-10-14T10:17:16.383Z,2.20
2022-10-14T10:19:44.589Z,2.40
2022-10-14T10:22:40.289Z,2.67
2022-10-14T10:25:10.559Z,2.22
2022-10-14T10:27:46.223Z,3.03
2022-10-14T10:30:16.608Z,2.47
2022-10-14T10:32:53.227Z,2.80
2022-10-14T10:35:26.337Z,2.33
2022-10-14T10:38:07.295Z,2.58
2022-10-14T10:40:41.603Z,2.20
2022-10-14T10:43:34.541Z,2.60
2022-10-14T10:46:21.236Z,2.50
2022-10-14T10:49:01.454Z,2.50
2022-10-14T10:51:39.510Z,3.08
2022-10-14T10:54:13.375Z,2.25
2022-10-14T10:56:40.439Z,2.25
2022-10-14T10:59:30.237Z,2.13
2022-10-14T11:02:11.148Z,2.47
2022-10-14T11:04:57.105Z,2.15
2022-10-14T11:07:56.146Z,2.47
2022-10-14T11:10:54.120Z,2.03
2022-10-14T11:13:34.370Z,1.90
2022-10-14T11:16:10.929Z,2.45
2022-10-14T11:18:53.433Z,2.60
2022-10-14T11:21:36.751Z,2.30
2022-10-14T11:24:21.356Z,1.83
2022-10-14T11:26:57.657Z,1.90
2022-10-14T11:29:47.325Z,1.90
2022-10-14T11:32:20.491Z,1.40
2022-10-14T11:35:03.486Z,2.22
2022-10-14T11:37:38.172Z,1.67
2022-10-14T11:40:22.295Z,1.75
2022-10-14T11:42:58.114Z,2.13
2022-10-14T11:45:39.306Z,1.92
2022-10-14T11:48:19.010Z,1.60
2022-10-14T11:50:54.266Z,2.13
2022-10-14T11:53:23.297Z,1.98
2022-10-14T11:55:54.027Z,1.80
2022-10-14T11:58:30.262Z,2.20
2022-10-14T12:01:00.656Z,2.05
2022-10-14T12:03:53.323Z,2.00
2022-10-14T12:06:20.533Z,1.95
2022-10-14T12:09:09.336Z,2.40
2022-10-14T12:11:45.125Z,1.90
2022-10-14T12:14:21.310Z,1.88
2022-10-14T12:16:48.963Z,1.60
2022-10-14T12:21:59.314Z,2.00
2022-10-14T12:24:37.193Z,1.80
2022-10-14T12:27:05.377Z,2.13
2022-10-14T12:29:34.860Z,2.13
2022-10-14T12:32:11.512Z,1.50
2022-10-14T12:34:40.518Z,2.28
2022-10-14T12:37:32.858Z,1.70
2022-10-14T12:40:10.212Z,2.00
2022-10-14T12:42:39.625Z,2.15
2022-10-14T12:45:32.229Z,1.70
2022-10-14T12:48:08.595Z,2.00
2022-10-14T12:50:45.252Z,1.60
2022-10-14T12:53:22.728Z,2.17
2022-10-14T12:55:58.333Z,2.05
2022-10-14T12:58:34.711Z,1.40
2022-10-14T13:01:22.339Z,1.88
2022-10-14T13:06:46.240Z,1.80
2022-10-14T13:09:13.449Z,1.50
2022-10-14T13:11:41.330Z,2.03
2022-10-14T13:14:34.312Z,2.10
2022-10-14T13:17:05.047Z,1.80
2022-10-14T13:19:42.319Z,2.30
2022-10-14T13:22:31.436Z,2.22
2022-10-14T13:25:27.375Z,2.08
2022-10-14T13:28:26.786Z,2.15
2022-10-14T13:33:47.027Z,1.92
2022-10-14T13:36:26.536Z,2.47
2022-10-14T13:38:57.928Z,2.35
2022-10-14T13:41:33.313Z,2.33
2022-10-14T13:44:01.371Z,2.00
2022-10-14T13:46:45.291Z,1.95
2022-10-14T13:49:20.983Z,1.67
2022-10-14T13:52:04.561Z,2.20
2022-10-14T13:54:32.282Z,1.90
2022-10-14T13:57:47.892Z,1.80
2022-10-14T14:00:42.015Z,1.88
2022-10-14T14:03:26.489Z,1.67
2022-10-14T14:05:54.094Z,1.85
2022-10-14T14:08:50.825Z,1.67
2022-10-14T14:11:35.247Z,1.60
2022-10-14T14:14:09.375Z,2.00
2022-10-14T14:19:19.048Z,2.20
2022-10-14T14:21:53.523Z,1.95
2022-10-14T14:24:23.901Z,2.13
2022-10-14T14:27:00.446Z,2.10
2022-10-14T14:29:29.011Z,2.20
2022-10-14T14:32:12.576Z,2.15
2022-10-14T14:34:47.419Z,2.40
2022-10-14T14:40:21.687Z,2.22
2022-10-14T14:42:57.258Z,2.10
2022-10-14T14:46:00.400Z,2.00
2022-10-14T14:48:41.235Z,2.25
2022-10-14T14:51:10.718Z,1.80
2022-10-14T14:53:44.283Z,2.38
2022-10-14T14:56:17.795Z,2.05
2022-10-14T14:58:55.243Z,1.65
2022-10-14T15:01:27.149Z,1.63
2022-10-14T15:04:13.494Z,2.03
2022-10-14T15:06:51.043Z,2.03
2022-10-14T15:09:31.268Z,2.63
2022-10-14T15:11:58.825Z,1.77
2022-10-14T15:17:00.385Z,2.50
2022-10-14T15:19:28.731Z,2.17
2022-10-14T15:22:23.974Z,2.45
2022-10-14T15:25:08.126Z,2.22
2022-10-14T15:27:46.770Z,2.33
2022-10-14T15:30:24.346Z,2.00
2022-10-14T15:32:59.322Z,2.15
2022-10-14T15:35:26.814Z,2.00
2022-10-14T15:38:00.393Z,2.17
2022-10-14T15:40:29.235Z,2.22
2022-10-14T17:07:03.444Z,2.97
2022-10-14T17:09:39.311Z,2.78
2022-10-14T17:12:14.582Z,4.00
2022-10-14T17:14:42.015Z,3.42
2022-10-14T17:17:10.317Z,3.40
2022-10-14T17:19:45.351Z,3.42
2022-10-14T17:22:12.761Z,3.15
2022-10-14T17:24:46.455Z,3.53
2022-10-14T17:27:13.635Z,3.60
2022-10-14T17:29:47.403Z,2.80
2022-10-14T17:32:14.593Z,3.03
2022-10-14T17:34:55.415Z,2.40
2022-10-14T17:37:22.859Z,2.42
2022-10-14T17:39:49.953Z,4.65
2022-10-14T17:42:23.570Z,3.22
2022-10-14T17:44:50.950Z,3.40
2022-10-14T17:47:24.839Z,3.80
2022-10-14T17:49:52.328Z,2.80
2022-10-14T17:52:19.434Z,3.00
2022-10-14T17:54:56.457Z,3.05
2022-10-14T17:57:26.344Z,5.57
2022-10-14T18:00:00.537Z,3.85
2022-10-14T18:02:28.279Z,4.53
2022-10-14T18:05:02.383Z,6.80
2022-10-14T18:07:29.738Z,5.43
2022-10-14T18:10:03.420Z,3.20
2022-10-14T18:12:30.679Z,3.60
2022-10-14T18:14:57.849Z,2.75
2022-10-14T18:17:31.456Z,3.20
2022-10-14T18:20:01.611Z,2.97
2022-10-14T18:22:36.531Z,2.40
2022-10-14T18:25:05.145Z,2.58
2022-10-14T18:27:32.266Z,2.60
2022-10-14T18:30:06.390Z,2.47
2022-10-14T18:32:33.645Z,2.78
2022-10-14T18:35:08.539Z,2.50
2022-10-14T18:37:35.776Z,2.17
2022-10-14T18:40:02.922Z,2.35
2022-10-14T18:42:36.428Z,2.58
2022-10-14T18:45:03.634Z,2.55
2022-10-14T18:47:37.538Z,2.50
2022-10-14T18:50:04.872Z,2.17
2022-10-14T18:52:33.070Z,2.38
2022-10-14T18:55:06.373Z,2.63
2022-10-14T18:57:33.615Z,2.35
2022-10-14T19:00:09.446Z,2.60
2022-10-14T19:02:39.312Z,2.50
2022-10-14T19:05:30.845Z,2.30
2022-10-14T19:08:00.237Z,2.67
2022-10-14T19:10:34.426Z,2.15
2022-10-14T19:13:10.451Z,2.63
2022-10-14T19:15:51.405Z,3.38
2022-10-14T19:18:27.509Z,3.20
2022-10-14T19:20:57.137Z,2.60
2022-10-14T19:23:24.855Z,2.35
2022-10-14T19:25:58.500Z,2.42
2022-10-14T19:28:26.011Z,2.78
2022-10-14T19:33:26.956Z,2.60
2022-10-14T19:36:07.543Z,2.85
2022-10-14T19:38:35.371Z,2.75
2022-10-14T19:41:03.203Z,2.72
2022-10-14T19:43:37.591Z,3.05
2022-10-14T19:46:08.873Z,2.90
2022-10-14T19:48:36.095Z,4.47
2022-10-14T19:51:10.412Z,2.38
2022-10-14T19:53:40.699Z,3.42
2022-10-14T19:56:15.719Z,2.83
2022-10-14T19:58:44.824Z,3.17
2022-10-14T20:01:13.520Z,3.67
2022-10-14T20:03:47.638Z,2.92
2022-10-14T20:06:21.839Z,3.30
2022-10-14T20:08:55.513Z,3.25
2022-10-14T20:11:24.462Z,3.42
2022-10-14T20:13:58.533Z,3.58
2022-10-14T20:16:26.986Z,4.15
2022-10-14T20:18:54.131Z,3.80
2022-10-14T20:21:27.694Z,3.45
2022-10-14T20:23:54.884Z,3.75
2022-10-14T20:26:22.289Z,4.45
2022-10-14T20:28:56.622Z,3.65
2022-10-14T20:31:25.421Z,4.30
2022-10-14T20:33:59.510Z,4.05
2022-10-14T20:36:26.950Z,3.88
2022-10-14T20:39:00.420Z,4.10
2022-10-14T20:41:27.907Z,3.85
2022-10-14T20:44:02.427Z,3.90
2022-10-14T20:46:29.747Z,3.95
2022-10-14T20:49:03.443Z,3.70
2022-10-14T20:51:30.730Z,4.28
2022-10-14T20:54:08.338Z,3.95
2022-10-14T20:56:37.217Z,4.05
2022-10-14T20:59:26.639Z,4.78
2022-10-14T21:02:00.406Z,4.35
2022-10-14T21:04:34.523Z,5.53
2022-10-14T21:07:08.429Z,5.72
2022-10-14T21:09:49.472Z,5.43
2022-10-14T21:12:16.654Z,5.40
2022-10-14T21:14:43.767Z,5.95
2022-10-14T21:17:17.450Z,6.15
2022-10-14T21:19:44.635Z,5.70
2022-10-14T21:22:18.465Z,6.25
2022-10-14T21:24:45.680Z,6.22
2022-10-14T21:27:19.628Z,6.93
2022-10-14T21:29:49.305Z,6.30
2022-10-14T21:32:16.727Z,5.90
2022-10-14T21:34:50.460Z,6.80
2022-10-14T21:37:18.106Z,7.10
2022-10-14T21:42:18.694Z,6.00
2022-10-14T21:44:52.486Z,6.57
2022-10-14T21:47:19.652Z,7.78
2022-10-14T21:49:47.277Z,6.93
2022-10-14T21:54:48.199Z,6.90
2022-10-14T21:57:23.935Z,6.10
2022-10-14T21:59:51.311Z,6.88
2022-10-14T22:02:18.510Z,7.35
2022-10-14T22:04:52.534Z,7.47
2022-10-14T22:07:26.525Z,8.15
2022-10-14T22:10:00.737Z,8.48
2022-10-14T22:12:29.790Z,8.48
2022-10-14T22:14:56.956Z,8.40
2022-10-14T22:17:30.557Z,8.65
2022-10-14T22:19:58.780Z,8.77
2022-10-14T22:22:32.492Z,9.15
2022-10-14T22:24:59.651Z,8.02
2022-10-14T22:27:26.760Z,9.18
2022-10-14T22:30:00.457Z,8.57
2022-10-14T22:32:27.633Z,9.20
2022-10-14T22:35:01.515Z,9.10
2022-10-14T22:37:30.891Z,8.88
2022-10-14T22:39:57.974Z,7.60
2022-10-14T22:42:31.567Z,7.82
2022-10-14T22:44:58.786Z,8.82
2022-10-14T22:47:32.516Z,7.93
2022-10-14T22:49:59.779Z,7.40
2022-10-14T22:52:26.911Z,6.85
2022-10-14T22:55:00.461Z,8.60
2022-10-14T22:57:27.663Z,7.70
2022-10-14T23:00:01.468Z,8.43
2022-10-14T23:02:28.692Z,7.50
2022-10-14T23:05:02.519Z,8.38
2022-10-14T23:07:36.443Z,9.38
2022-10-14T23:10:10.637Z,9.65
2022-10-14T23:12:37.812Z,9.07
2022-10-14T23:15:05.024Z,9.40
2022-10-14T23:17:38.465Z,8.65
2022-10-14T23:20:05.747Z,10.32
2022-10-14T23:22:41.602Z,8.85
2022-10-14T23:25:08.797Z,9.93
2022-10-14T23:27:36.449Z,10.07
2022-10-14T23:32:37.743Z,10.07
2022-10-14T23:35:11.533Z,10.00
2022-10-14T23:37:38.890Z,10.25
2022-10-14T23:40:13.525Z,9.05
2022-10-14T23:42:40.856Z,11.02
2022-10-14T23:45:08.747Z,10.23
2022-10-14T23:47:42.747Z,10.57
2022-10-14T23:50:09.984Z,10.27
2022-10-14T23:52:37.097Z,9.20
2022-10-14T23:55:11.496Z,10.57
2022-10-14T23:57:38.829Z,9.88
